createdAt,value
2018-07-28T00:00:49.564Z,25.6
2018-07-28T00:01:54.730Z,25.6
2018-07-28T00:02:59.605Z,25.6
2018-07-28T00:04:05.252Z,25.6
2018-07-28T00:05:10.407Z,25.6
2018-07-28T00:06:15.656Z,25.6
2018-07-28T00:07:20.950Z,25.6
2018-07-28T00:08:26.092Z,25.6
2018-07-28T00:09:31.617Z,25.6
2018-07-28T00:10:36.496Z,25.6
2018-07-28T00:11:41.736Z,25.6
2018-07-28T00:12:46.882Z,25.6
2018-07-28T00:13:51.756Z,25.6
2018-07-28T00:14:57.186Z,25.6
2018-07-28T00:16:02.300Z,25.6
2018-07-28T00:17:07.465Z,25.6
2018-07-28T00:18:12.388Z,25.6
2018-07-28T00:19:17.787Z,25.6
2018-07-28T00:20:22.953Z,25.6
2018-07-28T00:21:28.025Z,25.6
2018-07-28T00:22:33.502Z,25.6
2018-07-28T00:23:38.658Z,25.6
2018-07-28T00:24:43.940Z,25.6
2018-07-28T00:25:49.091Z,25.6
2018-07-28T00:26:54.344Z,25.6
2018-07-28T00:27:59.455Z,25.6
2018-07-28T00:29:04.635Z,25.6
2018-07-28T00:30:10.064Z,25.6
2018-07-28T00:31:15.326Z,25.6
2018-07-28T00:32:20.204Z,25.6
2018-07-28T00:33:26.188Z,25.6
2018-07-28T00:34:31.063Z,25.7
2018-07-28T00:35:36.562Z,25.6
2018-07-28T00:36:42.271Z,25.7
2018-07-28T00:37:47.699Z,25.6
2018-07-28T00:38:52.297Z,25.6
2018-07-28T00:39:57.736Z,25.6
2018-07-28T00:41:03.222Z,25.7
2018-07-28T00:42:07.838Z,25.7
2018-07-28T00:43:13.252Z,25.6
2018-07-28T00:44:17.910Z,25.6
2018-07-28T00:45:23.095Z,25.7
2018-07-28T00:46:29.053Z,25.7
2018-07-28T00:47:33.964Z,25.6
2018-07-28T00:48:39.645Z,25.7
2018-07-28T00:49:45.093Z,25.7
2018-07-28T00:50:50.577Z,25.7
2018-07-28T00:51:56.365Z,25.6
2018-07-28T00:53:01.507Z,25.7
2018-07-28T00:54:05.868Z,25.7
2018-07-28T00:55:11.259Z,25.7
2018-07-28T00:56:16.150Z,25.7
2018-07-28T00:57:21.406Z,25.7
2018-07-28T00:58:26.744Z,25.7
2018-07-28T00:59:31.951Z,25.7
2018-07-28T01:00:37.367Z,25.7
2018-07-28T01:01:42.223Z,25.7
2018-07-28T01:02:47.382Z,25.7
2018-07-28T01:03:53.084Z,25.7
2018-07-28T01:04:58.521Z,25.7
2018-07-28T01:06:03.734Z,25.7
2018-07-28T01:07:09.391Z,25.7
2018-07-28T01:08:14.261Z,25.7
2018-07-28T01:09:19.428Z,25.6
2018-07-28T01:10:24.712Z,25.6
2018-07-28T01:11:30.146Z,25.6
2018-07-28T01:12:35.605Z,25.7
2018-07-28T01:13:40.841Z,25.7
2018-07-28T01:14:45.983Z,25.7
2018-07-28T01:15:51.213Z,25.7
2018-07-28T01:16:56.402Z,25.7
2018-07-28T01:18:01.555Z,25.7
2018-07-28T01:19:06.875Z,25.7
2018-07-28T01:20:11.767Z,25.7
2018-07-28T01:21:16.923Z,25.7
2018-07-28T01:22:22.569Z,25.7
2018-07-28T01:23:27.834Z,25.7
2018-07-28T01:24:33.389Z,25.7
2018-07-28T01:25:38.815Z,25.7
2018-07-28T01:26:44.242Z,25.7
2018-07-28T01:27:50.075Z,25.7
2018-07-28T01:28:55.326Z,25.7
2018-07-28T01:30:00.834Z,25.7
2018-07-28T01:31:05.395Z,25.7
2018-07-28T01:32:10.547Z,25.7
2018-07-28T01:33:15.449Z,25.7
2018-07-28T01:34:20.958Z,25.7
2018-07-28T01:35:26.409Z,25.7
2018-07-28T01:36:31.672Z,25.7
2018-07-28T01:37:35.971Z,25.7
2018-07-28T01:38:41.408Z,25.7
2018-07-28T01:39:46.557Z,25.7
2018-07-28T01:40:51.505Z,25.7
2018-07-28T01:41:56.414Z,25.7
2018-07-28T01:43:01.686Z,25.7
2018-07-28T01:44:06.341Z,25.7
2018-07-28T01:45:11.784Z,25.7
2018-07-28T01:46:17.505Z,25.7
2018-07-28T01:47:22.745Z,25.7
2018-07-28T01:48:28.422Z,25.7
2018-07-28T01:49:33.653Z,25.7
2018-07-28T01:50:38.467Z,25.7
2018-07-28T01:51:44.294Z,25.7
2018-07-28T01:52:49.442Z,25.7
2018-07-28T01:53:54.378Z,25.7
2018-07-28T01:55:00.068Z,25.7
2018-07-28T01:56:05.272Z,25.7
2018-07-28T01:57:10.422Z,25.7
2018-07-28T01:58:16.010Z,25.7
2018-07-28T01:59:21.166Z,25.7
2018-07-28T02:00:26.888Z,25.7
2018-07-28T02:01:32.066Z,25.7
2018-07-28T02:02:37.219Z,25.7
2018-07-28T02:03:43.214Z,25.7
2018-07-28T02:04:48.729Z,25.7
2018-07-28T02:05:53.897Z,25.7
2018-07-28T02:06:59.591Z,25.7
2018-07-28T02:08:04.536Z,25.7
2018-07-28T02:09:09.973Z,25.7
2018-07-28T02:10:15.553Z,25.7
2018-07-28T02:11:20.759Z,25.7
2018-07-28T02:12:26.727Z,25.7
2018-07-28T02:13:31.883Z,25.7
2018-07-28T02:14:37.093Z,25.7
2018-07-28T02:15:42.492Z,25.7
2018-07-28T02:16:47.650Z,25.7
2018-07-28T02:17:52.230Z,25.7
2018-07-28T02:18:57.908Z,25.7
2018-07-28T02:20:03.063Z,25.7
2018-07-28T02:21:07.932Z,25.7
2018-07-28T02:22:13.796Z,25.7
2018-07-28T02:23:18.996Z,25.7
2018-07-28T02:24:23.879Z,25.7
2018-07-28T02:25:43.511Z,25.7
2018-07-28T02:26:48.663Z,25.7
2018-07-28T02:27:54.054Z,25.7
2018-07-28T02:28:59.499Z,25.7
2018-07-28T02:30:04.185Z,25.7
2018-07-28T02:31:10.007Z,25.7
2018-07-28T02:32:14.863Z,25.7
2018-07-28T02:33:19.782Z,25.7
2018-07-28T02:34:25.841Z,25.7
2018-07-28T02:35:30.427Z,25.7
2018-07-28T02:36:35.624Z,25.7
2018-07-28T02:37:41.044Z,25.7
2018-07-28T02:38:45.903Z,25.7
2018-07-28T02:39:51.752Z,25.7
2018-07-28T02:40:57.285Z,25.7
2018-07-28T02:42:02.726Z,25.7
2018-07-28T02:43:07.860Z,25.7
2018-07-28T02:44:13.372Z,25.7
2018-07-28T02:45:18.231Z,25.7
2018-07-28T02:46:23.971Z,25.7
2018-07-28T02:47:29.193Z,25.7
2018-07-28T02:48:34.589Z,25.7
2018-07-28T02:49:40.033Z,25.7
2018-07-28T02:50:45.184Z,25.7
2018-07-28T02:51:50.634Z,25.7
2018-07-28T02:52:55.507Z,25.7
2018-07-28T02:54:01.023Z,25.7
2018-07-28T02:55:06.941Z,25.7
2018-07-28T02:56:12.405Z,25.7
2018-07-28T02:57:17.613Z,25.7
2018-07-28T02:58:23.030Z,25.7
2018-07-28T02:59:28.232Z,25.7
2018-07-28T03:00:33.399Z,25.7
2018-07-28T03:01:38.278Z,25.7
2018-07-28T03:02:43.708Z,25.7
2018-07-28T03:03:48.904Z,25.7
2018-07-28T03:04:53.811Z,25.7
2018-07-28T03:05:59.024Z,25.7
2018-07-28T03:07:05.040Z,25.7
2018-07-28T03:08:10.189Z,25.7
2018-07-28T03:09:15.657Z,25.7
2018-07-28T03:10:21.136Z,25.7
2018-07-28T03:11:26.280Z,25.7
2018-07-28T03:12:31.874Z,25.7
2018-07-28T03:13:37.037Z,25.7
2018-07-28T03:14:42.472Z,25.7
2018-07-28T03:15:48.172Z,25.7
2018-07-28T03:16:53.665Z,25.7
2018-07-28T03:17:58.520Z,25.7
2018-07-28T03:19:03.833Z,25.7
2018-07-28T03:20:08.715Z,25.7
2018-07-28T03:21:14.153Z,25.7
2018-07-28T03:22:19.728Z,25.7
2018-07-28T03:23:24.708Z,25.7
2018-07-28T03:24:30.480Z,25.7
2018-07-28T03:25:35.730Z,25.7
2018-07-28T03:26:40.923Z,25.7
2018-07-28T03:27:46.614Z,25.7
2018-07-28T03:28:51.825Z,25.7
2018-07-28T03:29:57.025Z,25.7
2018-07-28T03:31:02.543Z,25.7
2018-07-28T03:32:07.779Z,25.7
2018-07-28T03:33:12.983Z,25.7
2018-07-28T03:34:18.201Z,25.7
2018-07-28T03:35:23.630Z,25.7
2018-07-28T03:36:29.433Z,25.7
2018-07-28T03:37:34.304Z,25.7
2018-07-28T03:38:39.559Z,25.7
2018-07-28T03:39:44.745Z,25.7
2018-07-28T03:40:49.639Z,25.7
2018-07-28T03:41:55.067Z,25.7
2018-07-28T03:43:00.925Z,25.7
2018-07-28T03:44:05.232Z,25.7
2018-07-28T03:45:10.153Z,25.7
2018-07-28T03:46:15.321Z,25.7
2018-07-28T03:47:20.471Z,25.7
2018-07-28T03:48:24.777Z,25.7
2018-07-28T03:49:29.711Z,25.7
2018-07-28T03:50:34.933Z,25.7
2018-07-28T03:51:40.341Z,25.7
2018-07-28T03:52:45.531Z,25.7
2018-07-28T03:53:50.716Z,25.7
2018-07-28T03:54:56.176Z,25.7
2018-07-28T03:56:01.438Z,25.7
2018-07-28T03:57:06.894Z,25.7
2018-07-28T03:58:12.604Z,25.7
2018-07-28T03:59:17.810Z,25.7
2018-07-28T04:00:22.424Z,25.7
2018-07-28T04:01:28.553Z,25.7
2018-07-28T04:02:33.896Z,25.7
2018-07-28T04:03:39.462Z,25.7
2018-07-28T04:04:44.621Z,25.7
2018-07-28T04:05:49.957Z,25.7
2018-07-28T04:06:55.720Z,25.7
2018-07-28T04:08:00.964Z,25.7
2018-07-28T04:09:05.885Z,25.7
2018-07-28T04:10:11.225Z,25.7
2018-07-28T04:11:16.658Z,25.7
2018-07-28T04:12:21.865Z,25.7
2018-07-28T04:13:27.119Z,25.7
2018-07-28T04:14:31.982Z,25.7
2018-07-28T04:15:37.525Z,25.7
2018-07-28T04:16:42.999Z,25.7
2018-07-28T04:17:47.881Z,25.7
2018-07-28T04:18:53.183Z,25.7
2018-07-28T04:19:58.130Z,25.7
2018-07-28T04:21:03.012Z,25.7
2018-07-28T04:22:08.240Z,25.7
2018-07-28T04:23:13.674Z,25.7
2018-07-28T04:24:18.547Z,25.7
2018-07-28T04:25:23.861Z,25.7
2018-07-28T04:26:29.308Z,25.7
2018-07-28T04:27:34.448Z,25.7
2018-07-28T04:28:39.049Z,25.7
2018-07-28T04:29:44.864Z,25.7
2018-07-28T04:30:50.156Z,25.7
2018-07-28T04:31:55.587Z,25.7
2018-07-28T04:33:01.036Z,25.7
2018-07-28T04:34:05.926Z,25.7
2018-07-28T04:35:10.546Z,25.7
2018-07-28T04:36:15.989Z,25.7
2018-07-28T04:37:21.534Z,25.7
2018-07-28T04:38:26.766Z,25.7
2018-07-28T04:39:31.678Z,25.7
2018-07-28T04:40:36.585Z,25.7
2018-07-28T04:41:42.026Z,25.7
2018-07-28T04:42:47.436Z,25.7
2018-07-28T04:43:52.664Z,25.7
2018-07-28T04:44:57.302Z,25.7
2018-07-28T04:46:02.284Z,25.7
2018-07-28T04:47:07.479Z,25.7
2018-07-28T04:48:12.671Z,25.8
2018-07-28T04:49:17.812Z,25.7
2018-07-28T04:50:23.287Z,25.8
2018-07-28T04:51:29.013Z,25.8
2018-07-28T04:52:33.887Z,25.8
2018-07-28T04:53:39.114Z,25.8
2018-07-28T04:54:44.545Z,25.8
2018-07-28T04:55:49.128Z,25.8
2018-07-28T04:56:54.347Z,25.8
2018-07-28T04:57:59.917Z,25.8
2018-07-28T04:59:04.837Z,25.8
2018-07-28T05:00:09.417Z,25.8
2018-07-28T05:01:14.678Z,25.8
2018-07-28T05:02:19.542Z,25.8
2018-07-28T05:03:24.819Z,25.8
2018-07-28T05:04:30.724Z,25.8
2018-07-28T05:05:35.874Z,25.8
2018-07-28T05:06:41.700Z,25.8
2018-07-28T05:07:47.215Z,25.8
2018-07-28T05:08:52.727Z,25.8
2018-07-28T05:09:58.528Z,25.8
2018-07-28T05:11:03.422Z,25.8
2018-07-28T05:12:08.895Z,25.8
2018-07-28T05:13:14.024Z,25.8
2018-07-28T05:14:19.172Z,25.8
2018-07-28T05:15:24.312Z,25.8
2018-07-28T05:16:30.269Z,25.8
2018-07-28T05:17:35.419Z,25.8
2018-07-28T05:18:40.909Z,25.8
2018-07-28T05:19:46.081Z,25.8
2018-07-28T05:20:51.229Z,25.8
2018-07-28T05:21:56.613Z,25.8
2018-07-28T05:23:01.813Z,25.8
2018-07-28T05:24:06.970Z,25.8
2018-07-28T05:25:12.100Z,25.8
2018-07-28T05:26:17.254Z,25.9
2018-07-28T05:27:22.411Z,25.9
2018-07-28T05:28:27.813Z,25.9
2018-07-28T05:29:32.818Z,26
2018-07-28T05:30:38.369Z,26
2018-07-28T05:31:42.672Z,26
2018-07-28T05:32:47.529Z,26.1
2018-07-28T05:33:53.346Z,26.1
2018-07-28T05:34:58.578Z,26.1
2018-07-28T05:36:04.061Z,26.2
2018-07-28T05:37:09.556Z,26.2
2018-07-28T05:38:15.128Z,26.3
2018-07-28T05:39:20.279Z,26.3
2018-07-28T05:40:25.986Z,26.4
2018-07-28T05:41:30.942Z,26.4
2018-07-28T05:42:35.894Z,26.4
2018-07-28T05:43:41.333Z,26.5
2018-07-28T05:44:46.264Z,26.5
2018-07-28T05:45:51.393Z,26.5
2018-07-28T05:46:56.260Z,26.6
2018-07-28T05:48:01.406Z,26.6
2018-07-28T05:49:06.449Z,26.6
2018-07-28T05:50:11.743Z,26.7
2018-07-28T05:51:17.235Z,26.7
2018-07-28T05:52:22.929Z,26.7
2018-07-28T05:53:28.424Z,26.8
2018-07-28T05:54:33.566Z,26.8
2018-07-28T05:55:37.878Z,26.8
2018-07-28T05:56:43.047Z,26.9
2018-07-28T05:57:48.442Z,26.9
2018-07-28T05:58:53.316Z,26.9
2018-07-28T05:59:57.987Z,27
2018-07-28T06:01:03.190Z,27
2018-07-28T06:02:08.190Z,27
2018-07-28T06:03:14.036Z,27
2018-07-28T06:04:19.249Z,27.1
2018-07-28T06:05:23.874Z,27.1
2018-07-28T06:06:29.468Z,27.1
2018-07-28T06:07:34.686Z,27.1
2018-07-28T06:08:40.152Z,27.2
2018-07-28T06:09:45.540Z,27.2
2018-07-28T06:10:50.440Z,27.2
2018-07-28T06:11:56.352Z,27.2
2018-07-28T06:13:02.200Z,27.2
2018-07-28T06:14:07.732Z,27.2
2018-07-28T06:15:13.163Z,27.2
2018-07-28T06:16:18.674Z,27.3
2018-07-28T06:17:23.819Z,27.3
2018-07-28T06:18:29.184Z,27.3
2018-07-28T06:19:34.624Z,27.3
2018-07-28T06:20:40.059Z,27.3
2018-07-28T06:21:45.791Z,27.3
2018-07-28T06:22:50.666Z,27.3
2018-07-28T06:23:56.094Z,27.4
2018-07-28T06:25:01.393Z,27.4
2018-07-28T06:26:05.793Z,27.4
2018-07-28T06:27:10.984Z,27.4
2018-07-28T06:28:16.419Z,27.4
2018-07-28T06:29:21.863Z,27.4
2018-07-28T06:30:27.663Z,27.4
2018-07-28T06:31:32.957Z,27.4
2018-07-28T06:32:38.741Z,27.4
2018-07-28T06:33:44.429Z,27.4
2018-07-28T06:34:49.873Z,27.4
2018-07-28T06:35:55.117Z,27.4
2018-07-28T06:37:00.896Z,27.5
2018-07-28T06:38:06.330Z,27.5
2018-07-28T06:39:11.563Z,27.5
2018-07-28T06:40:17.247Z,27.5
2018-07-28T06:41:22.400Z,27.5
2018-07-28T06:42:27.509Z,27.5
2018-07-28T06:43:32.706Z,27.5
2018-07-28T06:44:38.153Z,27.6
2018-07-28T06:45:43.588Z,27.5
2018-07-28T06:46:49.056Z,27.5
2018-07-28T06:47:53.707Z,27.5
2018-07-28T06:48:59.109Z,27.5
2018-07-28T06:50:03.419Z,27.6
2018-07-28T06:51:08.577Z,27.6
2018-07-28T06:52:14.462Z,27.6
2018-07-28T06:53:19.636Z,27.6
2018-07-28T06:55:45.148Z,27.6
2018-07-28T06:56:50.600Z,27.6
2018-07-28T06:57:55.821Z,27.6
2018-07-28T06:59:01.289Z,27.6
2018-07-28T07:00:06.166Z,27.6
2018-07-28T07:01:11.656Z,27.6
2018-07-28T07:02:17.091Z,27.6
2018-07-28T07:03:22.556Z,27.6
2018-07-28T07:04:27.658Z,27.6
2018-07-28T07:05:32.542Z,27.7
2018-07-28T07:06:37.812Z,27.7
2018-07-28T07:07:43.336Z,27.7
2018-07-28T07:08:48.208Z,27.7
2018-07-28T07:09:53.272Z,27.7
2018-07-28T07:10:58.182Z,27.7
2018-07-28T07:12:03.176Z,27.8
2018-07-28T07:13:08.634Z,27.8
2018-07-28T07:14:14.160Z,27.8
2018-07-28T07:15:19.061Z,27.8
2018-07-28T07:16:24.818Z,27.8
2018-07-28T07:17:29.699Z,27.8
2018-07-28T07:18:35.249Z,27.9
2018-07-28T07:19:40.416Z,27.9
2018-07-28T07:20:45.951Z,27.9
2018-07-28T07:21:51.847Z,27.9
2018-07-28T07:22:56.437Z,27.9
2018-07-28T07:24:01.646Z,27.9
2018-07-28T07:25:06.792Z,27.9
2018-07-28T07:26:11.945Z,27.9
2018-07-28T07:27:17.373Z,28
2018-07-28T07:28:22.496Z,28
2018-07-28T07:29:27.114Z,28
2018-07-28T07:30:32.018Z,28
2018-07-28T07:31:37.909Z,28
2018-07-28T07:32:43.350Z,28
2018-07-28T07:33:49.088Z,28
2018-07-28T07:34:53.725Z,28
2018-07-28T07:35:58.597Z,28
2018-07-28T07:37:04.441Z,28
2018-07-28T07:38:09.689Z,28.1
2018-07-28T07:39:14.289Z,28.1
2018-07-28T07:40:19.725Z,28.1
2018-07-28T07:41:24.106Z,28.1
2018-07-28T07:42:29.496Z,28.1
2018-07-28T07:43:34.759Z,28.1
2018-07-28T07:44:40.249Z,28.1
2018-07-28T07:45:45.409Z,28.1
2018-07-28T07:46:50.692Z,28.1
2018-07-28T07:47:55.893Z,28.1
2018-07-28T07:49:01.572Z,28.2
2018-07-28T07:50:07.069Z,28.2
2018-07-28T07:51:11.949Z,28.2
2018-07-28T07:52:16.783Z,28.2
2018-07-28T07:53:22.289Z,28.2
2018-07-28T07:54:28.273Z,28.2
2018-07-28T07:55:33.708Z,28.2
2018-07-28T07:56:39.140Z,28.2
2018-07-28T07:57:44.795Z,28.2
2018-07-28T07:58:49.945Z,28.2
2018-07-28T07:59:55.442Z,28.3
2018-07-28T08:01:00.869Z,28.3
2018-07-28T08:02:06.012Z,28.3
2018-07-28T08:03:11.479Z,28.3
2018-07-28T08:04:16.830Z,28.3
2018-07-28T08:05:21.688Z,28.3
2018-07-28T08:06:27.933Z,28.3
2018-07-28T08:07:33.554Z,28.3
2018-07-28T08:08:38.720Z,28.3
2018-07-28T08:09:44.448Z,28.4
2018-07-28T08:10:49.615Z,28.4
2018-07-28T08:11:55.132Z,28.4
2018-07-28T08:13:00.969Z,28.4
2018-07-28T08:14:05.588Z,28.4
2018-07-28T08:15:10.747Z,28.4
2018-07-28T08:16:16.296Z,28.4
2018-07-28T08:17:21.449Z,28.4
2018-07-28T08:18:27.489Z,28.4
2018-07-28T08:19:32.932Z,28.4
2018-07-28T08:20:37.533Z,28.4
2018-07-28T08:21:43.137Z,28.4
2018-07-28T08:22:48.673Z,28.4
2018-07-28T08:23:54.124Z,28.5
2018-07-28T08:24:59.908Z,28.4
2018-07-28T08:26:04.876Z,28.4
2018-07-28T08:27:10.116Z,28.4
2018-07-28T08:28:15.873Z,28.4
2018-07-28T08:29:21.106Z,28.5
2018-07-28T08:30:27.136Z,28.5
2018-07-28T08:31:32.024Z,28.5
2018-07-28T08:32:37.464Z,28.5
2018-07-28T08:33:42.868Z,28.5
2018-07-28T08:34:47.217Z,28.5
2018-07-28T08:35:52.369Z,28.5
2018-07-28T08:36:58.281Z,28.5
2018-07-28T08:38:03.438Z,28.5
2018-07-28T08:39:08.925Z,28.5
2018-07-28T08:40:14.074Z,28.5
2018-07-28T08:41:19.456Z,28.5
2018-07-28T08:42:25.396Z,28.5
2018-07-28T08:43:31.127Z,28.6
2018-07-28T08:44:36.270Z,28.6
2018-07-28T08:45:42.050Z,28.6
2018-07-28T08:46:46.991Z,28.6
2018-07-28T08:47:52.447Z,28.6
2018-07-28T08:48:57.862Z,28.6
2018-07-28T08:50:02.798Z,28.7
2018-07-28T08:51:07.399Z,28.7
2018-07-28T08:52:12.621Z,28.7
2018-07-28T08:53:17.492Z,28.7
2018-07-28T08:54:22.729Z,28.7
2018-07-28T08:55:28.987Z,28.7
2018-07-28T08:56:34.376Z,28.7
2018-07-28T08:57:39.524Z,28.7
2018-07-28T08:58:44.765Z,28.7
2018-07-28T08:59:50.204Z,28.7
2018-07-28T09:00:55.634Z,28.7
2018-07-28T09:02:00.897Z,28.7
2018-07-28T09:03:05.773Z,28.7
2018-07-28T09:04:11.623Z,28.7
2018-07-28T09:05:16.567Z,28.7
2018-07-28T09:06:21.715Z,28.7
2018-07-28T09:07:27.832Z,28.7
2018-07-28T09:08:32.429Z,28.8
2018-07-28T09:09:37.997Z,28.8
2018-07-28T09:10:42.923Z,28.8
2018-07-28T09:11:48.454Z,28.8
2018-07-28T09:12:53.285Z,28.8
2018-07-28T09:13:57.719Z,28.8
2018-07-28T09:15:03.211Z,28.8
2018-07-28T09:16:08.677Z,28.8
2018-07-28T09:17:13.859Z,28.8
2018-07-28T09:18:18.792Z,28.8
2018-07-28T09:19:23.897Z,28.8
2018-07-28T09:20:28.507Z,28.8
2018-07-28T09:21:33.950Z,28.8
2018-07-28T09:22:39.162Z,28.8
2018-07-28T09:23:45.127Z,28.8
2018-07-28T09:24:50.540Z,28.8
2018-07-28T09:25:56.022Z,28.8
2018-07-28T09:27:01.483Z,28.9
2018-07-28T09:28:06.320Z,28.9
2018-07-28T09:29:11.779Z,28.9
2018-07-28T09:30:16.953Z,28.9
2018-07-28T09:31:22.373Z,28.9
2018-07-28T09:32:27.519Z,28.9
2018-07-28T09:33:32.926Z,28.9
2018-07-28T09:34:38.358Z,28.9
2018-07-28T09:35:42.944Z,28.9
2018-07-28T09:36:48.096Z,28.9
2018-07-28T09:37:53.456Z,28.9
2018-07-28T09:38:58.633Z,28.9
2018-07-28T09:40:03.799Z,28.9
2018-07-28T09:41:09.153Z,28.9
2018-07-28T09:42:14.395Z,28.9
2018-07-28T09:43:20.090Z,29
2018-07-28T09:44:25.276Z,29
2018-07-28T09:45:30.503Z,29
2018-07-28T09:46:35.359Z,28.9
2018-07-28T09:47:40.225Z,29
2018-07-28T09:48:45.498Z,28.9
2018-07-28T09:49:50.658Z,29
2018-07-28T09:50:56.171Z,29
2018-07-28T09:52:01.698Z,29
2018-07-28T09:53:06.019Z,29
2018-07-28T09:54:11.283Z,29
2018-07-28T09:55:16.734Z,29
2018-07-28T09:56:22.232Z,29
2018-07-28T09:57:27.986Z,29
2018-07-28T09:58:33.709Z,29
2018-07-28T09:59:38.581Z,29
2018-07-28T10:00:43.695Z,29
2018-07-28T10:01:49.172Z,29
2018-07-28T10:02:54.093Z,29
2018-07-28T10:03:59.691Z,29
2018-07-28T10:05:04.847Z,29
2018-07-28T10:06:09.217Z,29
2018-07-28T10:07:14.373Z,29
2018-07-28T10:08:19.540Z,29
2018-07-28T10:10:45.260Z,29
2018-07-28T10:11:50.447Z,29
2018-07-28T10:12:55.794Z,29
2018-07-28T10:14:00.988Z,29
2018-07-28T10:15:06.171Z,29
2018-07-28T10:16:11.502Z,29
2018-07-28T10:17:17.273Z,29
2018-07-28T10:18:22.703Z,29
2018-07-28T10:19:28.874Z,29
2018-07-28T10:20:34.086Z,29
2018-07-28T10:21:39.949Z,29
2018-07-28T10:22:45.125Z,29
2018-07-28T10:23:50.430Z,29
2018-07-28T10:24:56.232Z,29
2018-07-28T10:26:01.391Z,29
2018-07-28T10:27:06.558Z,29
2018-07-28T10:28:11.967Z,29
2018-07-28T10:29:17.403Z,29
2018-07-28T10:30:22.555Z,29
2018-07-28T10:31:28.109Z,29.1
2018-07-28T10:32:32.729Z,29.1
2018-07-28T10:33:38.612Z,29.1
2018-07-28T10:34:44.115Z,29.1
2018-07-28T10:35:49.307Z,29.1
2018-07-28T10:36:54.712Z,29.1
2018-07-28T10:37:59.644Z,29.1
2018-07-28T10:39:05.077Z,29.1
2018-07-28T10:40:10.493Z,29.1
2018-07-28T10:41:15.736Z,29.1
2018-07-28T10:42:20.955Z,29.1
2018-07-28T10:43:41.046Z,29.1
2018-07-28T10:44:46.259Z,29.1
2018-07-28T10:45:51.945Z,29.1
2018-07-28T10:46:57.141Z,29.1
2018-07-28T10:48:02.671Z,29.1
2018-07-28T10:49:07.518Z,29.1
2018-07-28T10:50:12.777Z,29.1
2018-07-28T10:51:17.949Z,29.1
2018-07-28T10:52:23.342Z,29.1
2018-07-28T10:53:28.227Z,29.1
2018-07-28T10:54:33.828Z,29.1
2018-07-28T10:55:39.262Z,29.1
2018-07-28T10:56:44.771Z,29.1
2018-07-28T10:57:49.926Z,29.1
2018-07-28T10:58:55.103Z,29.1
2018-07-28T11:00:00.408Z,29.1
2018-07-28T11:01:05.457Z,29.1
2018-07-28T11:02:10.413Z,29.1
2018-07-28T11:03:15.857Z,29.1
2018-07-28T11:04:20.414Z,29.1
2018-07-28T11:05:25.562Z,29.1
2018-07-28T11:06:31.317Z,29.1
2018-07-28T11:07:36.481Z,29.1
2018-07-28T11:08:41.933Z,29.1
2018-07-28T11:09:47.181Z,29.1
2018-07-28T11:10:52.256Z,29.1
2018-07-28T11:11:57.123Z,29.2
2018-07-28T11:13:02.246Z,29.2
2018-07-28T11:14:07.596Z,29.2
2018-07-28T11:15:12.781Z,29.2
2018-07-28T11:16:18.183Z,29.2
2018-07-28T11:17:23.613Z,29.2
2018-07-28T11:18:29.158Z,29.2
2018-07-28T11:19:34.049Z,29.2
2018-07-28T11:20:39.199Z,29.2
2018-07-28T11:21:44.674Z,29.2
2018-07-28T11:22:49.885Z,29.2
2018-07-28T11:23:54.500Z,29.2
2018-07-28T11:24:59.702Z,29.2
2018-07-28T11:26:05.283Z,29.2
2018-07-28T11:27:11.393Z,29.2
2018-07-28T11:28:17.286Z,29.2
2018-07-28T11:29:23.108Z,29.2
2018-07-28T11:30:28.665Z,29.2
2018-07-28T11:31:33.582Z,29.2
2018-07-28T11:32:38.935Z,29.2
2018-07-28T11:33:44.715Z,29.2
2018-07-28T11:34:49.873Z,29.2
2018-07-28T11:35:54.800Z,29.2
2018-07-28T11:37:00.490Z,29.2
2018-07-28T11:38:05.090Z,29.2
2018-07-28T11:39:10.244Z,29.2
2018-07-28T11:40:15.464Z,29.2
2018-07-28T11:41:20.902Z,29.2
2018-07-28T11:42:26.457Z,29.2
2018-07-28T11:43:31.966Z,29.2
2018-07-28T11:44:37.396Z,29.2
2018-07-28T11:45:42.882Z,29.2
2018-07-28T11:46:47.852Z,29.2
2018-07-28T11:47:53.013Z,29.2
2018-07-28T11:48:58.922Z,29.2
2018-07-28T11:50:04.353Z,29.2
2018-07-28T11:51:09.839Z,29.2
2018-07-28T11:52:15.403Z,29.2
2018-07-28T11:53:20.874Z,29.2
2018-07-28T11:54:26.129Z,29.2
2018-07-28T11:55:31.304Z,29.2
2018-07-28T11:56:36.734Z,29.2
2018-07-28T11:57:42.617Z,29.2
2018-07-28T11:58:47.819Z,29.2
2018-07-28T11:59:53.042Z,29.2
2018-07-28T12:00:58.736Z,29.2
2018-07-28T12:02:03.625Z,29.2
2018-07-28T12:03:08.855Z,29.2
2018-07-28T12:04:14.088Z,29.2
2018-07-28T12:05:19.697Z,29.2
2018-07-28T12:06:24.371Z,29.2
2018-07-28T12:07:44.641Z,29.3
2018-07-28T12:08:49.245Z,29.3
2018-07-28T12:09:54.399Z,29.3
2018-07-28T12:10:59.361Z,29.3
2018-07-28T12:12:04.234Z,29.3
2018-07-28T12:13:09.637Z,29.3
2018-07-28T12:14:14.514Z,29.3
2018-07-28T12:15:19.965Z,29.3
2018-07-28T12:16:25.213Z,29.3
2018-07-28T12:17:30.642Z,29.3
2018-07-28T12:18:36.439Z,29.3
2018-07-28T12:19:42.322Z,29.3
2018-07-28T12:20:47.254Z,29.3
2018-07-28T12:21:52.919Z,29.3
2018-07-28T12:22:58.355Z,29.3
2018-07-28T12:24:03.611Z,29.3
2018-07-28T12:25:09.655Z,29.3
2018-07-28T12:26:15.152Z,29.3
2018-07-28T12:27:20.598Z,29.3
2018-07-28T12:28:26.064Z,29.3
2018-07-28T12:29:31.567Z,29.3
2018-07-28T12:30:36.558Z,29.3
2018-07-28T12:31:41.503Z,29.3
2018-07-28T12:32:46.935Z,29.3
2018-07-28T12:33:52.440Z,29.3
2018-07-28T12:34:57.699Z,29.4
2018-07-28T12:36:03.165Z,29.3
2018-07-28T12:37:08.614Z,29.4
2018-07-28T12:38:13.537Z,29.3
2018-07-28T12:39:19.065Z,29.4
2018-07-28T12:40:23.929Z,29.4
2018-07-28T12:41:29.082Z,29.4
2018-07-28T12:42:34.979Z,29.4
2018-07-28T12:43:40.133Z,29.4
2018-07-28T12:44:45.278Z,29.4
2018-07-28T12:45:50.805Z,29.4
2018-07-28T12:46:56.300Z,29.4
2018-07-28T12:48:01.804Z,29.4
2018-07-28T12:49:06.986Z,29.4
2018-07-28T12:50:12.433Z,29.3
2018-07-28T12:51:17.876Z,29.3
2018-07-28T12:52:23.649Z,29.3
2018-07-28T12:53:28.601Z,29.4
2018-07-28T12:54:34.109Z,29.4
2018-07-28T12:55:38.926Z,29.4
2018-07-28T12:56:44.797Z,29.4
2018-07-28T12:57:50.036Z,29.4
2018-07-28T12:58:55.491Z,29.4
2018-07-28T13:00:00.936Z,29.4
2018-07-28T13:01:05.780Z,29.4
2018-07-28T13:02:11.034Z,29.4
2018-07-28T13:03:16.266Z,29.4
2018-07-28T13:04:21.661Z,29.4
2018-07-28T13:05:26.574Z,29.4
2018-07-28T13:06:32.096Z,29.4
2018-07-28T13:07:37.340Z,29.4
2018-07-28T13:08:42.804Z,29.4
2018-07-28T13:09:47.986Z,29.4
2018-07-28T13:10:53.685Z,29.4
2018-07-28T13:11:59.202Z,29.4
2018-07-28T13:13:04.091Z,29.4
2018-07-28T13:14:09.264Z,29.4
2018-07-28T13:15:14.429Z,29.4
2018-07-28T13:16:20.212Z,29.4
2018-07-28T13:17:25.643Z,29.4
2018-07-28T13:18:31.585Z,29.4
2018-07-28T13:19:36.261Z,29.5
2018-07-28T13:20:41.700Z,29.5
2018-07-28T13:21:47.622Z,29.5
2018-07-28T13:22:53.121Z,29.5
2018-07-28T13:23:58.348Z,29.5
2018-07-28T13:25:04.285Z,29.5
2018-07-28T13:26:09.807Z,29.5
2018-07-28T13:27:14.888Z,29.5
2018-07-28T13:28:20.285Z,29.5
2018-07-28T13:29:25.519Z,29.5
2018-07-28T13:30:30.900Z,29.5
2018-07-28T13:31:35.310Z,29.5
2018-07-28T13:32:40.485Z,29.5
2018-07-28T13:33:46.014Z,29.5
2018-07-28T13:34:50.660Z,29.5
2018-07-28T13:35:56.160Z,29.5
2018-07-28T13:37:01.557Z,29.5
2018-07-28T13:38:06.557Z,29.5
2018-07-28T13:39:11.244Z,29.5
2018-07-28T13:40:16.934Z,29.5
2018-07-28T13:41:22.101Z,29.5
2018-07-28T13:42:28.006Z,29.5
2018-07-28T13:43:33.254Z,29.5
2018-07-28T13:44:38.743Z,29.6
2018-07-28T13:45:44.051Z,29.6
2018-07-28T13:46:49.276Z,29.6
2018-07-28T13:47:54.469Z,29.6
2018-07-28T13:49:00.251Z,29.6
2018-07-28T13:50:05.409Z,29.6
2018-07-28T13:51:10.971Z,29.6
2018-07-28T13:52:16.873Z,29.6
2018-07-28T13:53:22.329Z,29.6
2018-07-28T13:54:28.859Z,29.6
2018-07-28T13:55:34.026Z,29.6
2018-07-28T13:56:39.180Z,29.6
2018-07-28T13:57:44.964Z,29.6
2018-07-28T13:58:50.108Z,29.7
2018-07-28T13:59:55.271Z,29.7
2018-07-28T14:01:00.974Z,29.7
2018-07-28T14:02:06.137Z,29.7
2018-07-28T14:03:11.626Z,29.7
2018-07-28T14:04:16.863Z,29.7
2018-07-28T14:05:21.734Z,29.7
2018-07-28T14:06:27.459Z,29.7
2018-07-28T14:07:32.957Z,29.7
2018-07-28T14:08:37.678Z,29.7
2018-07-28T14:09:43.537Z,29.7
2018-07-28T14:10:48.724Z,29.7
2018-07-28T14:11:53.893Z,29.7
2018-07-28T14:12:59.438Z,29.8
2018-07-28T14:14:04.377Z,29.7
2018-07-28T14:15:08.982Z,29.7
2018-07-28T14:16:15.138Z,29.7
2018-07-28T14:17:20.296Z,29.8
2018-07-28T14:18:26.721Z,29.8
2018-07-28T14:19:32.706Z,29.8
2018-07-28T14:20:38.186Z,29.8
2018-07-28T14:21:43.763Z,29.8
2018-07-28T14:22:48.957Z,29.7
2018-07-28T14:23:54.443Z,29.8
2018-07-28T14:25:00.317Z,29.8
2018-07-28T14:26:04.828Z,29.8
2018-07-28T14:27:09.711Z,29.8
2018-07-28T14:28:15.447Z,29.8
2018-07-28T14:29:20.652Z,29.8
2018-07-28T14:30:26.081Z,29.8
2018-07-28T14:31:46.436Z,29.8
2018-07-28T14:32:51.605Z,29.8
2018-07-28T14:33:57.393Z,29.8
2018-07-28T14:35:02.847Z,29.8
2018-07-28T14:36:08.021Z,29.8
2018-07-28T14:37:13.419Z,29.8